Columbia — WYR2092 — position and weather

sailwx.info

Track history (hours):
 
Tides and Currents Weather Stations Pressure Air Temp Water Temp Dewpoint Dewpoint Depression Visibility Wind Speed Wind Dir Waves Ship Positions

Columbia

Owner: ALASKA, STATE OF, ANCHORAGE, AK. More information available from US FCC via Universal Licensing System and Coast Guard Vessel Documentation Center.

Last reported at 2014-Sep-28 10:33 UTC. Time now 2014-Oct-25 22:04 UTC.
Position N 54°34' W 130°43'.
Warning: this ship's position is 27 days out of date.

Type: Ship. MMSI: 367144000.

Date/timePositionNaut miles runAvg speedWind from/ knotsBaromVisibWave heightAir tempDewpointWater temp
2014-Sep-28 10:33N 54°34' W 130°43'1514.9
2014-Sep-28 09:34N 54°20' W 130°36'19413.4
2014-Sep-27 19:03N 51°33' W 127°52'916.9
2014-Sep-27 18:32N 51°24' W 127°50'1616.1
2014-Sep-27 17:34N 51°08' W 127°47'1616.5
2014-Sep-27 16:34N 50°57' W 127°28'1717.4
2014-Sep-27 15:33N 50°48' W 127°05'2116.7
2014-Sep-27 14:17N 50°33' W 126°41'5514.1
2014-Sep-27 10:25N 50°12' W 125°22'1210.2
2014-Sep-27 09:16N 50°02' W 125°13'1114.5
2014-Sep-27 08:30N 49°53' W 125°02'1616.6
2014-Sep-27 07:33N 49°42' W 124°45'1817.8
2014-Sep-27 06:33N 49°29' W 124°25'1818.4
2014-Sep-27 05:34N 49°20' W 124°00'1817.9
2014-Sep-27 04:33N 49°13' W 123°36'1817.8
2014-Sep-27 03:33N 49°01' W 123°16'1818.1
2014-Sep-27 02:33N 48°49' W 122°54'1716.9
2014-Sep-27 01:33N 48°39' W 122°34'5 2.3
2014-Sep-26 23:22N 48°43' W 122°31'0 0.0
2014-Sep-26 22:28N 48°43' W 122°31'0 0.0
2014-Sep-26 21:28N 48°43' W 122°31'0 0.0
2014-Sep-26 20:31N 48°43' W 122°31'0 0.0
2014-Sep-26 19:16N 48°43' W 122°31'0 0.0
2014-Sep-26 18:28N 48°43' W 122°31'1 0.2
2014-Sep-26 14:32N 48°43' W 122°32'8 8.2
2014-Sep-26 13:34N 48°41' W 122°43'1313.3
2014-Sep-26 12:34N 48°49' W 122°59'1514.7
2014-Sep-26 11:33N 48°59' W 123°16'1414.3
2014-Sep-26 10:33N 49°09' W 123°31'1514.6
2014-Sep-26 09:33N 49°20' W 123°47'1515.3
2014-Sep-26 08:34N 49°24' W 124°09'1414.3
2014-Sep-26 07:33N 49°31' W 124°28'1414.5
2014-Sep-26 06:33N 49°42' W 124°44'1414.0
2014-Sep-26 05:33N 49°51' W 124°59'19 9.2
2014-Sep-26 03:32N 50°06' W 125°17'4914.5
2014-Sep-26 00:09N 50°30' W 126°25'1116.5
2014-Sep-25 23:30N 50°32' W 126°41'1617.2
2014-Sep-25 22:33N 50°44' W 126°59'1615.8
2014-Sep-25 21:33N 50°53' W 127°19'1716.7
2014-Sep-25 20:33N 51°04' W 127°40'1615.9
2014-Sep-25 19:33N 51°18' W 127°52'19614.8
2014-Sep-25 06:21N 54°10' W 130°26'1417.0
2014-Sep-25 05:33N 54°22' W 130°37'  
2014-Sep-21 10:15N 54°35' W 130°40'1116.1
2014-Sep-21 09:33N 54°24' W 130°37'1312.5
2014-Sep-21 08:33N 54°13' W 130°29'18413.8
2014-Sep-20 19:14N 51°35' W 127°52'1115.0
2014-Sep-20 18:30N 51°24' W 127°52'1516.0
2014-Sep-20 17:34N 51°09' W 127°49'1716.6
2014-Sep-20 16:34N 50°58' W 127°30'1716.8
2014-Sep-20 15:33N 50°48' W 127°08'1717.2
2014-Sep-20 14:33N 50°38' W 126°47'2516.7
2014-Sep-20 13:04N 50°28' W 126°10'4015.2
2014-Sep-20 10:26N 50°06' W 125°18'9 9.8
2014-Sep-20 09:32N 49°59' W 125°11'1717.0
2014-Sep-20 08:33N 49°47' W 124°52'1717.0
2014-Sep-20 07:32N 49°35' W 124°33'1616.9
2014-Sep-20 06:34N 49°25' W 124°13'1717.3
2014-Sep-20 05:34N 49°21' W 123°47'1717.3
2014-Sep-20 04:34N 49°09' W 123°28'1716.9
2014-Sep-20 03:34N 48°57' W 123°09'1716.5
2014-Sep-20 02:34N 48°47' W 122°50'1312.8
2014-Sep-20 01:33N 48°40' W 122°34'4 4.0
2014-Sep-20 00:32N 48°43' W 122°31'0 0.0
2014-Sep-19 20:14N 48°43' W 122°31'0 0.0
2014-Sep-19 19:20N 48°43' W 122°31'0 0.0
2014-Sep-19 17:32N 48°43' W 122°31'0 0.0
2014-Sep-19 16:32N 48°43' W 122°31'0 0.0
2014-Sep-19 15:29N 48°43' W 122°31'0 0.1
2014-Sep-19 14:33N 48°43' W 122°31'9 8.5
2014-Sep-19 13:33N 48°40' W 122°42'1616.3
2014-Sep-19 12:33N 48°51' W 123°01'1717.5
2014-Sep-19 11:34N 49°02' W 123°21'1716.5
2014-Sep-19 10:33N 49°14' W 123°39'1615.7
2014-Sep-19 09:33N 49°23' W 123°59'1615.8
2014-Sep-19 08:33N 49°27' W 124°22'1616.4
2014-Sep-19 07:33N 49°39' W 124°40'1716.7
2014-Sep-19 06:33N 49°51' W 124°58'1312.6
2014-Sep-19 05:34N 49°60' W 125°12'1414.0
2014-Sep-19 04:33N 50°12' W 125°22'3313.8
2014-Sep-19 02:09N 50°28' W 126°08'1113.6
2014-Sep-19 01:20N 50°30' W 126°25'1113.2
2014-Sep-19 00:30N 50°34' W 126°41'1515.8
2014-Sep-18 23:33N 50°44' W 126°59'1616.5
2014-Sep-18 22:33N 50°53' W 127°20'1615.5
2014-Sep-18 21:33N 51°03' W 127°39'1515.4
2014-Sep-18 20:33N 51°16' W 127°53'  
Track history (hours):
 
Tides and Currents Weather Stations Pressure Air Temp Water Temp Dewpoint Dewpoint Depression Visibility Wind Speed Wind Dir Waves Ship Positions

Columbia

Owner: ALASKA, STATE OF, ANCHORAGE, AK. More information available from US FCC via Universal Licensing System and Coast Guard Vessel Documentation Center.

Last reported at 2014-Sep-28 10:33 UTC. Time now 2014-Oct-25 22:04 UTC.
Position N 54°34' W 130°43'.
Warning: this ship's position is 27 days out of date.

Type: Ship. MMSI: 367144000.

Date/timePositionNaut miles runAvg speedWind from/ knotsBaromVisibWave heightAir tempDewpointWater temp
2014-Sep-28 10:33N 54°34' W 130°43'1514.9
2014-Sep-28 09:34N 54°20' W 130°36'19413.4
2014-Sep-27 19:03N 51°33' W 127°52'916.9
2014-Sep-27 18:32N 51°24' W 127°50'1616.1
2014-Sep-27 17:34N 51°08' W 127°47'1616.5
2014-Sep-27 16:34N 50°57' W 127°28'1717.4
2014-Sep-27 15:33N 50°48' W 127°05'2116.7
2014-Sep-27 14:17N 50°33' W 126°41'5514.1
2014-Sep-27 10:25N 50°12' W 125°22'1210.2
2014-Sep-27 09:16N 50°02' W 125°13'1114.5
2014-Sep-27 08:30N 49°53' W 125°02'1616.6
2014-Sep-27 07:33N 49°42' W 124°45'1817.8
2014-Sep-27 06:33N 49°29' W 124°25'1818.4
2014-Sep-27 05:34N 49°20' W 124°00'1817.9
2014-Sep-27 04:33N 49°13' W 123°36'1817.8
2014-Sep-27 03:33N 49°01' W 123°16'1818.1
2014-Sep-27 02:33N 48°49' W 122°54'1716.9
2014-Sep-27 01:33N 48°39' W 122°34'5 2.3
2014-Sep-26 23:22N 48°43' W 122°31'0 0.0
2014-Sep-26 22:28N 48°43' W 122°31'0 0.0
2014-Sep-26 21:28N 48°43' W 122°31'0 0.0
2014-Sep-26 20:31N 48°43' W 122°31'0 0.0
2014-Sep-26 19:16N 48°43' W 122°31'0 0.0
2014-Sep-26 18:28N 48°43' W 122°31'1 0.2
2014-Sep-26 14:32N 48°43' W 122°32'8 8.2
2014-Sep-26 13:34N 48°41' W 122°43'1313.3
2014-Sep-26 12:34N 48°49' W 122°59'1514.7
2014-Sep-26 11:33N 48°59' W 123°16'1414.3
2014-Sep-26 10:33N 49°09' W 123°31'1514.6
2014-Sep-26 09:33N 49°20' W 123°47'1515.3
2014-Sep-26 08:34N 49°24' W 124°09'1414.3
2014-Sep-26 07:33N 49°31' W 124°28'1414.5
2014-Sep-26 06:33N 49°42' W 124°44'1414.0
2014-Sep-26 05:33N 49°51' W 124°59'19 9.2
2014-Sep-26 03:32N 50°06' W 125°17'4914.5
2014-Sep-26 00:09N 50°30' W 126°25'1116.5
2014-Sep-25 23:30N 50°32' W 126°41'1617.2
2014-Sep-25 22:33N 50°44' W 126°59'1615.8
2014-Sep-25 21:33N 50°53' W 127°19'1716.7
2014-Sep-25 20:33N 51°04' W 127°40'1615.9
2014-Sep-25 19:33N 51°18' W 127°52'19614.8
2014-Sep-25 06:21N 54°10' W 130°26'1417.0
2014-Sep-25 05:33N 54°22' W 130°37'  
2014-Sep-21 10:15N 54°35' W 130°40'1116.1
2014-Sep-21 09:33N 54°24' W 130°37'1312.5
2014-Sep-21 08:33N 54°13' W 130°29'18413.8
2014-Sep-20 19:14N 51°35' W 127°52'1115.0
2014-Sep-20 18:30N 51°24' W 127°52'1516.0
2014-Sep-20 17:34N 51°09' W 127°49'1716.6
2014-Sep-20 16:34N 50°58' W 127°30'1716.8
2014-Sep-20 15:33N 50°48' W 127°08'1717.2
2014-Sep-20 14:33N 50°38' W 126°47'2516.7
2014-Sep-20 13:04N 50°28' W 126°10'4015.2
2014-Sep-20 10:26N 50°06' W 125°18'9 9.8
2014-Sep-20 09:32N 49°59' W 125°11'1717.0
2014-Sep-20 08:33N 49°47' W 124°52'1717.0
2014-Sep-20 07:32N 49°35' W 124°33'1616.9
2014-Sep-20 06:34N 49°25' W 124°13'1717.3
2014-Sep-20 05:34N 49°21' W 123°47'1717.3
2014-Sep-20 04:34N 49°09' W 123°28'1716.9
2014-Sep-20 03:34N 48°57' W 123°09'1716.5
2014-Sep-20 02:34N 48°47' W 122°50'1312.8
2014-Sep-20 01:33N 48°40' W 122°34'4 4.0
2014-Sep-20 00:32N 48°43' W 122°31'0 0.0
2014-Sep-19 20:14N 48°43' W 122°31'0 0.0
2014-Sep-19 19:20N 48°43' W 122°31'0 0.0
2014-Sep-19 17:32N 48°43' W 122°31'0 0.0
2014-Sep-19 16:32N 48°43' W 122°31'0 0.0
2014-Sep-19 15:29N 48°43' W 122°31'0 0.1
2014-Sep-19 14:33N 48°43' W 122°31'9 8.5
2014-Sep-19 13:33N 48°40' W 122°42'1616.3
2014-Sep-19 12:33N 48°51' W 123°01'1717.5
2014-Sep-19 11:34N 49°02' W 123°21'1716.5
2014-Sep-19 10:33N 49°14' W 123°39'1615.7
2014-Sep-19 09:33N 49°23' W 123°59'1615.8
2014-Sep-19 08:33N 49°27' W 124°22'1616.4
2014-Sep-19 07:33N 49°39' W 124°40'1716.7
2014-Sep-19 06:33N 49°51' W 124°58'1312.6
2014-Sep-19 05:34N 49°60' W 125°12'1414.0
2014-Sep-19 04:33N 50°12' W 125°22'3313.8
2014-Sep-19 02:09N 50°28' W 126°08'1113.6
2014-Sep-19 01:20N 50°30' W 126°25'1113.2
2014-Sep-19 00:30N 50°34' W 126°41'1515.8
2014-Sep-18 23:33N 50°44' W 126°59'1616.5
2014-Sep-18 22:33N 50°53' W 127°20'1615.5
2014-Sep-18 21:33N 51°03' W 127°39'1515.4
2014-Sep-18 20:33N 51°16' W 127°53'  

Dump ship's entire track history